Time;durP1;ratioP1;P1;durP2;ratioP2;P2;SDS_P1;SDS_P2;PMS_P1;PMS_P2;Temp;Humidity;BMP_temperature;BMP_pressure;BME280_temperature;BME280_humidity;BME280_pressure;Samples;Min_cycle;Max_cycle;Signal;HPM_P1;HPM_P2
2022/04/18 00:01:32;;;;;;;9.60;3.30;;;;;;;4.32;100.00;100545.09;6254778;23;20404;-62
2022/04/18 00:04:35;;;;;;;9.10;2.90;;;;;;;4.14;100.00;100531.63;6221524;23;20070;-62
2022/04/18 00:07:19;;;;;;;6.50;2.53;;;;;;;4.17;100.00;100539.56;6246196;23;20105;-60
2022/04/18 00:10:04;;;;;;;6.43;2.85;;;;;;;4.20;100.00;100551.00;6193469;23;20417;-62
2022/04/18 00:12:49;;;;;;;6.75;2.53;;;;;;;4.21;100.00;100551.88;6246790;23;20102;-63
2022/04/18 00:15:33;;;;;;;9.25;2.88;;;;;;;3.97;100.00;100509.47;6203876;23;20030;-63
2022/04/18 00:18:18;;;;;;;7.47;2.83;;;;;;;4.18;100.00;100544.84;6247742;23;20030;-63
2022/04/18 00:21:02;;;;;;;6.78;2.72;;;;;;;3.93;100.00;100512.88;6250729;23;20031;-64
2022/04/18 00:23:47;;;;;;;8.63;2.72;;;;;;;4.09;100.00;100539.44;6247851;23;20031;-63
2022/04/18 00:26:32;;;;;;;8.52;2.90;;;;;;;4.04;100.00;100548.09;6222568;23;20481;-63
2022/04/18 00:29:16;;;;;;;4.65;2.40;;;;;;;4.05;100.00;100544.59;6247777;23;20541;-62
2022/04/18 00:32:01;;;;;;;6.15;2.97;;;;;;;4.07;100.00;100546.38;6222807;23;20059;-63
2022/04/18 00:34:45;;;;;;;9.27;2.72;;;;;;;4.08;100.00;100540.28;6247784;23;20060;-63
2022/04/18 00:37:30;;;;;;;6.37;2.87;;;;;;;4.11;100.00;100544.69;6240398;23;20345;-63
2022/04/18 00:40:14;;;;;;;5.63;2.38;;;;;;;3.87;100.00;100512.75;6229691;23;20289;-62
2022/04/18 00:43:06;;;;;;;8.15;2.75;;;;;;;4.05;100.00;100537.63;6232790;23;20035;-61
2022/04/18 00:45:50;;;;;;;5.38;2.50;;;;;;;3.93;100.00;100524.28;6223849;23;20093;-61
2022/04/18 00:48:35;;;;;;;6.80;3.00;;;;;;;3.79;100.00;100514.34;6257162;23;20031;-62
2022/04/18 00:51:22;;;;;;;7.00;2.78;;;;;;;3.68;100.00;100498.44;6256818;23;20094;-62
2022/04/18 00:54:08;;;;;;;7.25;2.70;;;;;;;3.91;100.00;100539.09;6256651;23;20528;-61
2022/04/18 00:56:54;;;;;;;9.85;2.80;;;;;;;3.90;100.00;100537.34;6256679;23;20050;-62
2022/04/18 00:59:39;;;;;;;5.38;2.40;;;;;;;3.87;100.00;100539.88;6229135;23;20035;-63
2022/04/18 01:02:23;;;;;;;5.07;2.75;;;;;;;3.81;100.00;100536.28;6251894;23;20078;-62
2022/04/18 01:05:08;;;;;;;10.50;3.13;;;;;;;3.74;100.00;100531.75;6226585;23;20157;-62
2022/04/18 01:07:53;;;;;;;4.55;2.75;;;;;;;3.72;100.00;100536.09;6251828;23;20047;-62
2022/04/18 01:10:43;;;;;;;7.00;2.92;;;;;;;3.71;100.00;100543.06;6228926;23;20408;-62
2022/04/18 01:13:28;;;;;;;5.13;2.60;;;;;;;3.55;100.00;100504.31;6192890;23;20107;-66
2022/04/18 01:16:31;;;;;;;7.05;2.70;;;;;;;3.64;100.00;100504.47;6228940;23;20477;-62
2022/04/18 01:19:29;;;;;;;9.98;2.50;;;;;;;3.86;100.00;100532.00;6220042;23;20086;-62
2022/04/18 01:22:30;;;;;;;5.53;2.60;;;;;;;3.83;100.00;100524.06;6226702;23;20374;-62
2022/04/18 01:31:40;;;;;;;5.15;2.25;;;;;;;3.62;100.00;100518.41;6215052;23;20116;-70
2022/04/18 01:34:24;;;;;;;8.50;2.50;;;;;;;3.45;100.00;100498.84;6216087;23;20050;-64
2022/04/18 01:37:08;;;;;;;7.55;2.88;;;;;;;3.33;100.00;100488.13;6226275;23;20034;-63
2022/04/18 01:39:53;;;;;;;6.20;2.50;;;;;;;3.55;100.00;100511.28;6228840;23;20035;-61
2022/04/18 01:42:37;;;;;;;4.90;2.35;;;;;;;3.49;100.00;100509.41;6195198;23;20351;-62
2022/04/18 01:45:22;;;;;;;7.00;2.38;;;;;;;3.50;100.00;100515.53;6218477;23;20035;-62
2022/04/18 01:48:18;;;;;;;7.35;2.38;;;;;;;3.44;100.00;100518.06;6228436;23;20060;-61
2022/04/18 01:51:03;;;;;;;8.30;2.15;;;;;;;3.42;100.00;100528.50;6238618;23;20146;-61
2022/04/18 01:53:48;;;;;;;8.15;2.47;;;;;;;3.44;100.00;100518.06;6207421;23;20050;-62
2022/04/18 01:56:33;;;;;;;7.38;2.67;;;;;;;3.51;100.00;100528.69;6217074;23;20572;-63
2022/04/18 01:59:19;;;;;;;7.22;2.67;;;;;;;3.44;100.00;100526.78;6207853;23;20031;-62
2022/04/18 02:02:04;;;;;;;4.88;2.60;;;;;;;3.44;100.00;100524.16;6218786;23;20362;-62
2022/04/18 02:04:48;;;;;;;6.47;2.85;;;;;;;3.34;100.00;100514.38;6196908;23;20544;-67
2022/04/18 02:07:33;;;;;;;8.02;2.85;;;;;;;3.31;100.00;100522.16;6218223;23;20051;-62
2022/04/18 02:10:17;;;;;;;5.40;2.28;;;;;;;3.35;100.00;100525.72;6225764;23;20026;-62
2022/04/18 02:13:02;;;;;;;7.03;3.10;;;;;;;3.31;100.00;100522.16;6228152;23;20031;-61
2022/04/18 02:15:50;;;;;;;4.65;2.13;;;;;;;3.06;100.00;100480.59;6205900;23;20105;-61
2022/04/18 02:18:34;;;;;;;5.95;2.70;;;;;;;3.30;100.00;100527.38;6228324;23;20367;-62
2022/04/18 02:21:19;;;;;;;7.18;2.80;;;;;;;3.30;100.00;100519.50;6228367;23;20047;-62
2022/04/18 02:24:05;;;;;;;9.95;2.78;;;;;;;3.34;100.00;100523.97;6227754;23;20027;-64
2022/04/18 02:26:50;;;;;;;5.63;2.80;;;;;;;3.29;100.00;100528.22;6254444;23;20047;-62
2022/04/18 02:29:35;;;;;;;8.05;2.35;;;;;;;3.09;100.00;100492.88;6254884;23;20374;-62
2022/04/18 02:35:26;;;;;;;5.67;2.60;;;;;;;3.08;100.00;100498.94;6261499;23;20030;-60
2022/04/18 02:38:17;;;;;;;8.25;2.95;;;;;;;3.28;100.00;100523.84;6207279;23;20485;-61
2022/04/18 02:41:03;;;;;;;6.68;3.25;;;;;;;3.28;100.00;100527.34;6251962;23;20054;-60
2022/04/18 02:43:48;;;;;;;7.82;3.13;;;;;;;3.24;100.00;100517.63;6238371;23;20022;-61
2022/04/18 02:46:32;;;;;;;8.88;3.47;;;;;;;3.28;100.00;100532.56;6242167;23;20051;-62
2022/04/18 02:49:21;;;;;;;11.02;3.33;;;;;;;3.13;100.00;100498.19;6217971;23;20067;-63
2022/04/18 02:52:07;;;;;;;7.55;3.10;;;;;;;3.36;100.00;100524.88;6225866;23;20477;-62
2022/04/18 02:54:51;;;;;;;9.18;3.22;;;;;;;3.25;100.00;100531.63;6227621;23;20027;-62
2022/04/18 02:57:54;;;;;;;9.73;3.03;;;;;;;3.29;100.00;100536.94;6241407;23;20035;-65
2022/04/18 03:00:40;;;;;;;6.22;3.10;;;;;;;3.38;100.00;100525.78;6225629;23;20027;-63
2022/04/18 03:03:25;;;;;;;6.63;3.22;;;;;;;3.30;100.00;100517.78;6216305;23;20031;-63
2022/04/18 03:06:10;;;;;;;10.98;3.72;;;;;;;3.36;100.00;100515.28;6203463;23;20035;-68
2022/04/18 03:08:55;;;;;;;8.73;3.35;;;;;;;3.24;100.00;100514.16;6216199;23;20054;-66
2022/04/18 03:11:40;;;;;;;7.55;3.05;;;;;;;3.37;100.00;100522.25;6201125;23;20035;-64
2022/04/18 03:14:25;;;;;;;6.88;2.75;;;;;;;3.33;100.00;100522.19;6232101;23;20062;-63
2022/04/18 03:17:17;;;;;;;8.45;3.50;;;;;;;3.46;100.00;100524.19;6202299;23;20058;-64
2022/04/18 03:20:01;;;;;;;7.30;3.17;;;;;;;3.52;100.00;100516.47;6231877;23;20070;-62
2022/04/18 03:22:47;;;;;;;8.45;2.70;;;;;;;3.52;100.00;100508.63;6245600;23;20423;-63
2022/04/18 03:25:40;;;;;;;9.98;3.30;;;;;;;3.60;100.00;100528.00;6200594;23;20074;-63
2022/04/18 03:28:25;;;;;;;5.70;3.03;;;;;;;3.63;100.00;100514.94;6226566;23;20031;-64
2022/04/18 03:31:11;;;;;;;7.45;3.05;;;;;;;3.70;100.00;100516.81;6232712;23;20375;-66
2022/04/18 03:33:55;;;;;;;8.95;3.15;;;;;;;3.69;100.00;100507.19;6232169;23;20111;-64
2022/04/18 03:39:51;;;;;;;9.57;3.10;;;;;;;3.91;100.00;100525.97;6233066;23;20041;-65
2022/04/18 03:42:38;;;;;;;6.85;3.50;;;;;;;3.95;100.00;100524.28;6201496;23;20062;-65
2022/04/18 03:45:26;;;;;;;5.97;2.75;;;;;;;4.04;100.00;100503.47;6201068;23;20043;-63
2022/04/18 03:48:11;;;;;;;7.88;3.03;;;;;;;4.16;100.00;100520.28;6201203;23;20047;-65
2022/04/18 03:50:55;;;;;;;7.05;2.88;;;;;;;4.24;100.00;100518.69;6201193;23;20059;-62
2022/04/18 03:53:40;;;;;;;5.35;2.53;;;;;;;4.29;100.00;100519.69;6231992;23;20452;-63
2022/04/18 03:56:25;;;;;;;6.55;2.78;;;;;;;4.34;100.00;100518.00;6232389;23;20413;-65
2022/04/18 03:59:31;;;;;;;9.00;2.90;;;;;;;4.37;100.00;100523.31;6220422;23;20107;-63
2022/04/18 04:02:23;;;;;;;6.43;3.13;;;;;;;4.39;100.00;100524.19;6211814;23;20051;-63
2022/04/18 04:05:11;;;;;;;8.48;2.90;;;;;;;4.44;100.00;100521.66;6210972;23;20107;-65
2022/04/18 04:07:56;;;;;;;6.07;2.78;;;;;;;4.53;100.00;100527.94;6231114;23;20042;-62
2022/04/18 04:10:46;;;;;;;7.47;3.50;;;;;;;4.65;100.00;100525.50;6199894;23;20317;-62
2022/04/18 04:13:30;;;;;;;9.25;3.08;;;;;;;4.75;100.00;100526.53;6199878;23;20082;-65
2022/04/18 04:16:28;;;;;;;8.63;3.20;;;;;;;4.86;100.00;100522.31;6182251;23;20030;-63
2022/04/18 04:19:15;;;;;;;9.18;3.30;;;;;;;4.89;100.00;100519.72;6256279;23;20070;-64
2022/04/18 04:22:00;;;;;;;6.22;3.17;;;;;;;4.91;100.00;100525.91;6257408;23;20034;-63
2022/04/18 04:24:45;;;;;;;5.80;2.97;;;;;;;4.85;100.00;100492.53;6213092;23;20169;-62
2022/04/18 04:27:32;;;;;;;9.07;3.55;;;;;;;5.11;100.00;100518.28;6202960;23;20031;-62
2022/04/18 04:30:20;;;;;;;9.10;3.70;;;;;;;5.20;100.00;100521.03;6233679;23;20078;-63
2022/04/18 04:33:18;;;;;;;8.02;3.65;;;;;;;5.19;100.00;100506.13;6233547;23;20420;-63
2022/04/18 04:36:06;;;;;;;7.60;3.42;;;;;;;5.32;100.00;100510.69;6256730;23;20031;-64
2022/04/18 04:38:51;;;;;;;10.45;3.60;;;;;;;5.44;100.00;100513.47;6212534;23;20054;-64
2022/04/18 04:41:40;;;;;;;18.35;3.63;;;;;;;5.49;100.00;100510.03;6212997;23;20027;-64
2022/04/18 04:44:25;;;;;;;9.20;3.72;;;;;;;5.52;100.00;100517.97;6234109;23;20047;-62
2022/04/18 04:47:25;;;;;;;9.77;3.80;;;;;;;5.53;100.00;100496.03;6215325;23;20066;-63
2022/04/18 04:50:09;;;;;;;12.53;3.87;;;;;;;5.73;100.00;100512.94;6233518;23;20166;-64
2022/04/18 04:53:03;;;;;;;17.73;5.05;;;;;;;5.81;100.00;100499.91;6232424;23;20294;-64
2022/04/18 04:55:48;;;;;;;10.15;3.85;;;;;;;5.95;100.00;100512.34;6233389;23;20031;-65
2022/04/18 04:58:33;;;;;;;13.88;3.70;;;;;;;6.01;100.00;100507.13;6212601;23;20066;-64
2022/04/18 05:01:25;;;;;;;6.95;3.35;;;;;;;6.11;100.00;100502.84;6161085;23;20035;-64
2022/04/18 05:04:18;;;;;;;15.20;3.13;;;;;;;6.18;100.00;100496.75;6202175;23;20042;-64
2022/04/18 05:07:04;;;;;;;8.00;3.30;;;;;;;6.28;100.00;100496.84;6223248;23;20031;-63
2022/04/18 05:10:11;;;;;;;6.05;2.78;;;;;;;6.25;100.00;100469.63;6244636;23;20042;-63
2022/04/18 05:12:56;;;;;;;5.25;2.83;;;;;;;6.45;100.00;100513.66;6232955;23;20111;-62
2022/04/18 05:15:41;;;;;;;8.30;3.60;;;;;;;6.50;100.00;100493.53;6255462;23;20082;-62
2022/04/18 05:18:51;;;;;;;7.82;2.60;;;;;;;6.52;100.00;100489.16;6132244;23;20113;-63
2022/04/18 05:21:36;;;;;;;5.55;3.17;;;;;;;6.60;100.00;100491.84;6163756;23;20047;-64
2022/04/18 05:24:33;;;;;;;4.13;2.42;;;;;;;6.73;100.00;100491.94;6163690;23;20107;-64
2022/04/18 05:27:18;;;;;;;;;;;;;;;6.86;100.00;100496.44;6163680;23;20032;-63
2022/04/18 05:30:06;;;;;;;6.85;2.50;;;;;;;6.93;100.00;100492.94;6142499;23;19963;-63
2022/04/18 05:32:52;;;;;;;14.75;2.75;;;;;;;7.00;100.00;100486.84;6163867;23;20028;-65
2022/04/18 05:35:36;;;;;;;5.65;2.10;;;;;;;7.14;100.00;100494.81;6142849;23;20024;-64
2022/04/18 05:38:21;;;;;;;6.20;2.40;;;;;;;6.98;100.00;100456.97;6142604;23;20383;-64
2022/04/18 05:41:13;;;;;;;4.05;2.00;;;;;;;7.21;100.00;100491.34;6132968;23;20033;-63
2022/04/18 05:43:59;;;;;;;3.92;1.83;;;;;;;7.07;100.00;100467.53;6142062;23;20395;-63
2022/04/18 05:46:51;;;;;;;4.57;1.92;;;;;;;7.27;100.00;100492.25;6153027;23;20056;-63
2022/04/18 05:49:37;;;;;;;9.90;1.90;;;;;;;7.44;100.00;100494.97;6111704;23;20393;-62
2022/04/18 05:52:22;;;;;;;5.65;1.60;;;;;;;7.51;100.00;100497.63;6162780;23;20507;-62
2022/04/18 05:55:21;;;;;;;6.95;1.88;;;;;;;7.71;100.00;100503.00;6179340;23;20058;-63
2022/04/18 05:58:07;;;;;;;4.28;1.40;;;;;;;7.85;100.00;100503.91;6232431;23;20026;-63
2022/04/18 06:00:52;;;;;;;5.00;1.50;;;;;;;7.93;100.00;100495.13;6212052;23;20406;-65
2022/04/18 06:03:37;;;;;;;4.78;1.75;;;;;;;8.07;100.00;100501.31;6256031;23;20070;-63
2022/04/18 06:06:22;;;;;;;8.32;1.70;;;;;;;7.96;100.00;100473.13;6256766;23;20027;-63
2022/04/18 06:09:06;;;;;;;2.47;1.42;;;;;;;8.20;100.00;100511.00;6255961;23;20043;-62
2022/04/18 06:11:51;;;;;;;3.88;1.75;;;;;;;8.32;100.00;100505.75;6256248;23;20038;-64
2022/04/18 06:14:39;;;;;;;2.85;1.25;;;;;;;8.43;100.00;100500.50;6234148;23;20478;-63
2022/04/18 06:17:25;;;;;;;2.47;1.48;;;;;;;8.45;100.00;100506.66;6211433;23;20054;-62
2022/04/18 06:20:14;;;;;;;4.65;1.45;;;;;;;8.43;100.00;100488.16;6222655;23;20030;-64
2022/04/18 06:22:58;;;;;;;7.00;1.20;;;;;;;8.61;100.00;100506.66;6222714;23;20043;-63
2022/04/18 06:25:44;;;;;;;4.57;1.48;;;;;;;8.55;100.00;100467.00;6232636;23;20414;-64
2022/04/18 06:28:29;;;;;;;4.57;1.40;;;;;;;8.64;100.00;100474.06;6255754;23;20074;-64
2022/04/18 06:31:14;;;;;;;5.20;1.40;;;;;;;8.64;99.15;100489.91;6246560;23;20078;-64
2022/04/18 06:34:18;;;;;;;5.47;1.40;;;;;;;8.91;98.70;100497.81;6183765;23;20073;-64
2022/04/18 06:37:03;;;;;;;1.95;1.33;;;;;;;9.08;97.62;100482.78;6232235;23;20030;-63
2022/04/18 06:39:55;;;;;;;2.05;1.38;;;;;;;9.38;96.89;100493.28;6233136;23;20066;-63
2022/04/18 06:42:49;;;;;;;3.10;1.25;;;;;;;9.67;94.10;100491.38;6213427;23;20031;-64
2022/04/18 06:45:41;;;;;;;3.15;1.15;;;;;;;9.73;91.44;100462.19;6181876;23;20073;-63
2022/04/18 06:48:27;;;;;;;1.55;0.90;;;;;;;9.95;87.18;100493.00;6233436;23;20027;-63
2022/04/18 06:51:29;;;;;;;2.85;1.15;;;;;;;9.99;86.24;100459.41;6236657;23;20446;-62
2022/04/18 06:54:16;;;;;;;1.63;1.02;;;;;;;10.37;85.94;100490.09;6212739;23;20516;-61
2022/04/18 06:57:21;;;;;;;2.08;1.00;;;;;;;10.66;83.76;100500.44;6245558;23;20066;-60
2022/04/18 07:00:13;;;;;;;3.85;1.13;;;;;;;10.81;80.40;100471.13;6213418;23;20082;-61
2022/04/18 07:02:58;;;;;;;4.30;1.30;;;;;;;11.29;76.81;100487.41;6232379;23;20023;-61
2022/04/18 07:05:43;;;;;;;4.95;0.90;;;;;;;11.35;74.96;100473.19;6232770;23;20031;-62
2022/04/18 07:08:27;;;;;;;9.10;1.50;;;;;;;11.74;72.98;100494.84;6255196;23;20119;-63
2022/04/18 07:11:18;;;;;;;5.38;1.20;;;;;;;12.17;70.65;100497.78;6202506;23;20026;-62
2022/04/18 07:14:03;;;;;;;3.17;1.02;;;;;;;12.36;68.00;100497.47;6254332;23;20358;-62
2022/04/18 07:16:47;;;;;;;2.50;1.07;;;;;;;12.80;65.89;100494.97;6211071;23;20031;-63
2022/04/18 07:19:36;;;;;;;2.17;1.10;;;;;;;13.31;63.20;100498.47;6255588;23;20246;-61
2022/04/18 07:22:28;;;;;;;4.65;1.10;;;;;;;13.70;57.99;100490.53;6255812;23;20031;-61
2022/04/18 07:25:17;;;;;;;6.97;1.00;;;;;;;14.19;57.65;100493.00;6233449;23;20085;-60
2022/04/18 07:28:06;;;;;;;5.63;1.00;;;;;;;14.71;54.01;100492.69;6221977;23;20031;-61
2022/04/18 07:30:51;;;;;;;3.75;1.13;;;;;;;15.28;51.16;100486.69;6211466;23;20085;-61
2022/04/18 07:33:36;;;;;;;3.75;1.00;;;;;;;15.70;49.35;100484.63;6232384;23;20031;-62
2022/04/18 07:36:23;;;;;;;8.63;1.05;;;;;;;16.00;46.52;100486.38;6201467;23;20354;-62
2022/04/18 07:39:09;;;;;;;1.58;0.95;;;;;;;16.34;44.39;100468.34;6232552;23;20148;-62
2022/04/18 07:41:59;;;;;;;6.72;1.02;;;;;;;16.68;40.63;100471.69;6230934;23;20031;-62
2022/04/18 07:44:47;;;;;;;3.30;1.02;;;;;;;17.15;39.38;100484.34;6222395;23;20031;-62
2022/04/18 07:47:32;;;;;;;;;;;;;;;18.11;40.68;100491.44;6232948;23;20103;-64
2022/04/18 07:50:19;;;;;;;1.48;0.80;;;;;;;18.36;35.40;100469.91;6201386;23;19922;-63
2022/04/18 07:53:03;;;;;;;2.75;1.10;;;;;;;18.91;34.48;100469.38;6212159;23;20074;-62
2022/04/18 07:55:48;;;;;;;;;;;;;;;19.38;34.25;100495.97;6235497;23;20513;-63
2022/04/18 07:58:33;;;;;;;4.20;0.88;;;;;;;19.31;29.91;100477.50;6223049;23;19922;-63
2022/04/18 08:01:20;;;;;;;5.93;1.10;;;;;;;19.82;28.11;100483.22;6200174;23;20042;-63
2022/04/18 08:04:05;;;;;;;3.38;0.90;;;;;;;20.04;27.42;100495.59;6232268;23;20031;-65
2022/04/18 08:06:51;;;;;;;3.67;0.75;;;;;;;19.96;26.43;100465.47;6232290;23;20030;-62
2022/04/18 08:09:40;;;;;;;5.10;1.13;;;;;;;20.41;26.72;100481.28;6211585;23;20027;-63
2022/04/18 08:12:24;;;;;;;2.55;1.35;;;;;;;20.83;26.18;100476.47;6255232;23;20031;-63
2022/04/18 08:15:28;;;;;;;1.50;0.90;;;;;;;21.47;24.50;100485.69;6245331;23;20158;-65
2022/04/18 08:18:12;;;;;;;2.40;0.90;;;;;;;22.17;23.43;100485.47;6232368;23;20031;-65
2022/04/18 08:21:17;;;;;;;1.75;0.90;;;;;;;22.76;23.11;100477.56;6222458;23;20110;-63
2022/04/18 08:24:02;;;;;;;6.00;0.90;;;;;;;22.95;21.92;100470.09;6222312;23;20366;-64
2022/04/18 08:27:10;;;;;;;1.48;0.85;;;;;;;23.20;22.57;100482.13;6244847;23;20393;-64
2022/04/18 08:30:06;;;;;;;2.30;1.00;;;;;;;23.51;21.81;100473.00;6200350;23;20070;-63
2022/04/18 08:33:12;;;;;;;5.60;0.90;;;;;;;23.66;21.63;100474.75;6232011;23;20030;-63
2022/04/18 08:35:57;;;;;;;;;;;;;;;24.35;25.93;100479.31;6245093;23;20070;-65
2022/04/18 08:38:43;;;;;;;3.88;1.10;;;;;;;23.93;20.66;100449.53;6200735;23;20296;-64
2022/04/18 08:42:00;;;;;;;4.00;1.10;;;;;;;24.55;20.14;100453.56;6132578;23;20032;-64
2022/04/18 08:44:54;;;;;;;2.47;1.20;;;;;;;24.60;19.58;100471.28;6083209;23;20447;-62
2022/04/18 08:53:48;;;;;;;2.40;1.17;;;;;;;26.43;17.71;100448.38;6110020;23;20040;-64
2022/04/18 08:56:34;;;;;;;2.90;0.95;;;;;;;26.65;16.99;100437.69;6081191;23;20543;-64
2022/04/18 08:59:19;;;;;;;3.15;1.10;;;;;;;26.89;16.74;100441.25;6132258;23;20028;-64
2022/04/18 09:02:04;;;;;;;2.72;1.20;;;;;;;27.22;15.91;100449.59;6101755;23;20033;-64
2022/04/18 09:04:55;;;;;;;3.28;1.00;;;;;;;26.68;15.99;100421.97;6111757;23;20497;-62
2022/04/18 09:07:43;;;;;;;2.67;1.20;;;;;;;26.79;16.71;100448.38;6113365;23;20499;-67
2022/04/18 09:10:28;;;;;;;2.63;1.30;;;;;;;26.83;16.19;100433.56;6113711;23;20033;-67
2022/04/18 09:13:14;;;;;;;4.50;1.20;;;;;;;27.35;16.38;100447.63;6112615;23;20069;-63
2022/04/18 09:16:29;;;;;;;1.92;1.10;;;;;;;27.94;15.73;100438.34;6118771;23;20060;-69
2022/04/18 09:19:16;;;;;;;3.13;1.45;;;;;;;27.74;15.38;100441.78;6180888;23;20491;-64
2022/04/18 09:22:07;;;;;;;2.30;1.38;;;;;;;27.85;15.60;100428.19;6233996;23;20046;-64
2022/04/18 09:25:12;;;;;;;5.85;1.33;;;;;;;29.13;14.75;100431.94;6205085;23;20043;-64
2022/04/18 09:27:58;;;;;;;5.70;1.38;;;;;;;28.67;15.22;100417.66;6245762;23;20043;-63
2022/04/18 09:30:55;;;;;;;2.70;1.35;;;;;;;28.79;14.92;100430.28;6202052;23;20074;-64
2022/04/18 09:33:45;;;;;;;5.43;1.73;;;;;;;29.92;14.31;100421.25;6245233;23;20074;-63
2022/04/18 09:36:30;;;;;;;5.07;1.48;;;;;;;30.64;14.02;100430.13;6222924;23;20026;-65
2022/04/18 09:39:24;;;;;;;4.47;1.80;;;;;;;30.80;13.99;100416.81;6181500;23;20027;-65
2022/04/18 09:42:26;;;;;;;3.08;1.40;;;;;;;31.50;13.19;100422.84;6201837;23;20031;-63
2022/04/18 09:45:26;;;;;;;1.33;1.10;;;;;;;31.18;13.07;100403.97;6223451;23;20038;-64
2022/04/18 09:48:17;;;;;;;7.75;1.45;;;;;;;30.43;13.18;100407.47;6234068;23;20050;-63
2022/04/18 09:51:08;;;;;;;2.05;1.25;;;;;;;31.26;13.12;100416.97;6212870;23;20131;-64
2022/04/18 09:54:08;;;;;;;4.95;1.38;;;;;;;31.88;12.96;100428.28;6223077;23;20030;-64
2022/04/18 09:56:53;;;;;;;2.78;1.52;;;;;;;31.93;12.69;100413.09;6180728;23;20526;-64
2022/04/18 09:59:41;;;;;;;2.25;1.08;;;;;;;31.87;12.62;100416.44;6246167;23;20027;-64
2022/04/18 10:02:27;;;;;;;3.42;1.10;;;;;;;31.80;12.53;100425.41;6222614;23;20066;-64
2022/04/18 10:05:12;;;;;;;1.42;0.90;;;;;;;32.42;12.00;100414.59;6232617;23;20031;-64
2022/04/18 10:08:03;;;;;;;1.77;1.15;;;;;;;33.22;11.42;100413.59;6233364;23;20082;-63
2022/04/18 10:10:48;;;;;;;4.25;1.00;;;;;;;33.10;11.16;100389.25;6223081;23;20070;-64
2022/04/18 10:13:34;;;;;;;4.88;1.00;;;;;;;33.29;11.30;100400.06;6223085;23;20077;-62
2022/04/18 10:16:21;;;;;;;3.22;1.10;;;;;;;33.60;11.25;100392.25;6244960;23;20362;-65
2022/04/18 10:19:31;;;;;;;4.47;1.00;;;;;;;34.00;11.28;100392.53;6201194;23;20223;-65
2022/04/18 10:22:21;;;;;;;5.60;1.25;;;;;;;33.95;10.88;100389.38;6245758;23;20146;-65
2022/04/18 10:25:33;;;;;;;1.98;0.82;;;;;;;34.73;10.44;100406.44;6232236;23;20070;-65
2022/04/18 10:28:23;;;;;;;1.33;0.90;;;;;;;34.57;10.36;100391.75;6256028;23;20035;-65
2022/04/18 10:31:13;;;;;;;8.02;1.00;;;;;;;32.68;10.74;100374.38;6181277;23;20099;-64
2022/04/18 10:33:59;;;;;;;4.60;0.90;;;;;;;33.43;10.39;100385.78;6232769;23;20355;-65
2022/04/18 10:36:47;;;;;;;2.63;1.10;;;;;;;33.55;10.75;100391.88;6180345;23;20505;-64
2022/04/18 10:39:34;;;;;;;3.35;1.10;;;;;;;33.72;10.68;100377.19;6232590;23;20078;-65
2022/04/18 10:42:31;;;;;;;1.90;0.73;;;;;;;33.84;10.31;100397.91;6232891;23;20093;-65
2022/04/18 10:45:20;;;;;;;5.03;0.98;;;;;;;33.38;10.34;100390.03;6232825;23;20041;-65
2022/04/18 10:48:06;;;;;;;2.35;0.90;;;;;;;32.64;10.61;100387.56;6256148;23;20031;-66
2022/04/18 10:50:51;;;;;;;4.57;1.10;;;;;;;33.02;10.79;100383.66;6255194;23;20034;-64
2022/04/18 10:53:35;;;;;;;2.53;1.20;;;;;;;33.61;11.04;100385.72;6201219;23;20055;-64
2022/04/18 10:56:21;;;;;;;5.53;1.27;;;;;;;33.50;10.43;100377.75;6255261;23;20027;-64
2022/04/18 10:59:06;;;;;;;3.33;1.00;;;;;;;33.62;10.68;100384.69;6245122;23;20026;-67
2022/04/18 11:01:53;;;;;;;5.70;0.95;;;;;;;32.42;11.67;100371.53;6222670;23;20358;-65
2022/04/18 11:04:40;;;;;;;2.33;0.70;;;;;;;32.07;11.60;100378.81;6232448;23;20063;-63
2022/04/18 11:07:38;;;;;;;4.65;1.10;;;;;;;31.80;11.91;100382.38;6255554;23;20425;-65
2022/04/18 11:10:23;;;;;;;1.88;1.08;;;;;;;31.11;12.15;100367.19;6221810;23;20074;-64
2022/04/18 11:13:12;;;;;;;3.33;1.00;;;;;;;30.70;12.06;100341.97;6255129;23;20030;-64
2022/04/18 11:16:30;;;;;;;2.55;1.40;;;;;;;30.40;12.49;100353.88;6232442;23;20362;-64
2022/04/18 11:19:16;;;;;;;2.58;0.95;;;;;;;29.23;13.20;100348.19;6101968;23;20135;-64
2022/04/18 11:22:01;;;;;;;7.35;1.25;;;;;;;28.58;13.66;100344.75;6131727;23;20108;-64
2022/04/18 11:24:48;;;;;;;4.45;1.20;;;;;;;28.64;13.88;100349.72;6122310;23;20072;-65
2022/04/18 11:27:35;;;;;;;1.52;0.85;;;;;;;28.03;14.36;100344.88;6121812;23;20029;-67
2022/04/18 11:30:19;;;;;;;3.47;1.10;;;;;;;27.69;14.68;100341.28;6111810;23;20361;-64
2022/04/18 11:33:05;;;;;;;2.17;1.10;;;;;;;27.36;15.16;100344.00;6101990;23;20029;-64
2022/04/18 11:35:50;;;;;;;2.72;0.90;;;;;;;26.85;15.22;100339.06;6111772;23;20092;-63
2022/04/18 11:38:35;;;;;;;5.35;1.02;;;;;;;26.72;15.05;100349.13;6101507;23;20060;-64
2022/04/18 11:41:19;;;;;;;1.55;1.00;;;;;;;26.47;15.63;100333.78;6112247;23;20036;-63
2022/04/18 11:44:05;;;;;;;2.92;1.00;;;;;;;26.15;15.79;100327.22;6132576;23;20057;-65
2022/04/18 11:46:50;;;;;;;3.13;1.00;;;;;;;25.70;16.30;100330.56;6121968;23;20392;-65
2022/04/18 11:49:38;;;;;;;2.55;1.20;;;;;;;25.00;16.71;100317.56;6131972;23;20156;-63
2022/04/18 11:52:24;;;;;;;1.20;0.98;;;;;;;24.79;17.11;100289.19;6132018;23;20032;-64
2022/04/18 11:55:15;;;;;;;2.72;1.00;;;;;;;24.83;17.19;100297.03;6162618;23;20504;-67
2022/04/18 11:58:00;;;;;;;3.92;1.38;;;;;;;24.53;17.61;100312.66;6179820;23;20027;-65
2022/04/18 12:06:53;;;;;;;2.03;1.00;;;;;;;23.91;18.56;100302.47;6200813;23;20027;-64
2022/04/18 12:09:40;;;;;;;5.18;1.08;;;;;;;23.82;18.47;100304.88;6255118;23;20035;-64
2022/04/18 12:12:29;;;;;;;4.53;1.10;;;;;;;23.60;19.04;100305.41;6221609;23;20342;-65
2022/04/18 12:15:14;;;;;;;2.00;1.20;;;;;;;23.35;19.07;100304.38;6244271;23;20099;-63
2022/04/18 12:18:06;;;;;;;;;;;;;;;23.48;19.48;100303.47;6254922;23;20031;-64
2022/04/18 12:20:53;;;;;;;3.78;0.93;;;;;;;23.34;19.20;100297.22;6231665;23;19923;-72
2022/04/18 12:23:40;;;;;;;5.05;1.00;;;;;;;22.98;19.35;100288.69;6221953;23;20074;-64
2022/04/18 12:26:27;;;;;;;1.77;1.10;;;;;;;22.89;19.64;100289.22;6254326;23;20035;-64
2022/04/18 12:29:12;;;;;;;2.30;0.93;;;;;;;22.47;20.13;100284.63;6231859;23;20099;-64
2022/04/18 12:31:59;;;;;;;4.97;1.20;;;;;;;22.38;20.30;100277.03;6210589;23;20027;-64
2022/04/18 12:34:43;;;;;;;5.57;1.17;;;;;;;22.43;20.68;100274.94;6254901;23;20031;-65
2022/04/18 12:37:28;;;;;;;2.42;1.15;;;;;;;22.20;20.88;100272.72;6231782;23;20355;-63
2022/04/18 12:40:15;;;;;;;2.55;1.33;;;;;;;22.01;21.03;100266.66;6201380;23;20031;-65
2022/04/18 12:43:06;;;;;;;2.45;1.10;;;;;;;21.98;21.27;100265.03;6256754;23;20031;-64
2022/04/18 12:46:02;;;;;;;1.40;1.10;;;;;;;22.15;21.17;100271.25;6256298;23;20170;-64
2022/04/18 12:48:51;;;;;;;6.22;1.17;;;;;;;21.86;21.78;100265.75;6212440;23;20504;-68
2022/04/18 12:51:38;;;;;;;3.72;1.20;;;;;;;21.94;21.92;100260.75;6223598;23;20063;-64
2022/04/18 12:54:24;;;;;;;7.03;1.67;;;;;;;21.98;21.77;100258.72;6256222;23;20389;-64
2022/04/18 12:57:20;;;;;;;4.80;1.20;;;;;;;21.72;21.83;100260.25;6233658;23;20031;-64
2022/04/18 13:00:14;;;;;;;2.97;1.00;;;;;;;21.73;22.38;100248.47;6256509;23;20169;-64
2022/04/18 13:03:02;;;;;;;3.03;1.23;;;;;;;21.73;22.28;100251.19;6223553;23;20027;-63
2022/04/18 13:05:50;;;;;;;3.15;1.15;;;;;;;21.01;22.19;100227.47;6245432;23;20094;-64
2022/04/18 13:08:38;;;;;;;2.67;0.80;;;;;;;20.91;23.37;100248.66;6257417;23;20104;-65
2022/04/18 13:11:23;;;;;;;10.02;1.45;;;;;;;20.83;23.85;100247.28;6223397;23;20465;-65
2022/04/18 13:14:12;;;;;;;2.92;1.20;;;;;;;20.77;23.46;100255.72;6256134;23;20371;-64
2022/04/18 13:17:08;;;;;;;4.97;1.40;;;;;;;20.69;23.71;100250.72;6234079;23;20023;-64
2022/04/18 13:19:53;;;;;;;2.50;1.20;;;;;;;20.48;24.02;100246.50;6202790;23;20401;-67
2022/04/18 13:22:38;;;;;;;2.88;1.40;;;;;;;20.31;24.29;100230.34;6255902;23;20091;-64
2022/04/18 13:25:23;;;;;;;2.88;1.15;;;;;;;20.38;25.08;100242.50;6233019;23;20031;-65
2022/04/18 13:28:09;;;;;;;;;;;;;;;20.54;24.94;100237.22;6246577;23;20086;-64
2022/04/18 13:30:54;;;;;;;2.72;1.27;;;;;;;20.29;24.61;100236.78;6234038;23;19918;-66